»·PEaware :: N6929D KSNA-KPSP

N6929D :: KSNA-KPSP

FLIGHT INFORMATION

Flight Status: Arrived
Operator: Privately registered:
United States
More flights under this callsign
Pilot: James H. (1562)
Aircraft: PIPER PA-22 TRI PACER/CARIBBEAN
(PA22)
More flights by this aircraft type
Origin: KSNA John Wayne-Orange Co
United States
Destination: KPSP Palm Springs Intl
United States
More flights between these airports :: More routes between these airports
Route: +
File this flight plan on PilotEdge
Remarks:
Altitude:
(Current/Filed)
5,500ft
Speed:
(Current/Filed)
0kts
Departed: 29-Jan-13 03:38 PM
Arrived: 29-Jan-13 04:24 PM
Distance/Time
Traveled:
68nm/0:46
Distance/Time
To Go:
Arrived

Flight Plot

Page will automatically refresh every two minutes.


Map Options




Map Legend


Flown Route
Filed Route
Departure Airport
Arrival Airport
Navaid (VOR, NDB)
Fix

Horizontal Profiles

Position Reports

Time Latitude Longitude Heading Altitude Ground
Speed
29-Jan-13 15:26 33.671853 -117.867087 127 59ft 0kts
29-Jan-13 15:27 33.671850 -117.867082 127 59ft 0kts
29-Jan-13 15:28 33.671847 -117.867077 127 59ft 0kts
29-Jan-13 15:29 33.671843 -117.867072 127 59ft 0kts
29-Jan-13 15:30 33.671796 -117.867099 284 59ft 0kts
29-Jan-13 15:31 33.672078 -117.867470 310 59ft 5kts
29-Jan-13 15:32 33.673495 -117.867295 23 59ft 4kts
29-Jan-13 15:33 33.676711 -117.865464 26 59ft 15kts
29-Jan-13 15:34 33.679278 -117.863925 25 59ft 12kts
29-Jan-13 15:35 33.680642 -117.863248 309 59ft 0kts
29-Jan-13 15:36 33.680645 -117.863253 309 59ft 0kts
29-Jan-13 15:37 33.680788 -117.863549 276 59ft 3kts
29-Jan-13 15:38 33.665975 -117.871027 187 529ft 89kts
29-Jan-13 15:39 33.644718 -117.860854 136 1625ft 97kts
29-Jan-13 15:40 33.635758 -117.826167 91 2203ft 124kts
29-Jan-13 15:41 33.635671 -117.783142 88 2285ft 130kts
29-Jan-13 15:42 33.635163 -117.740202 84 2390ft 128kts
29-Jan-13 15:43 33.634987 -117.696094 88 2405ft 131kts
29-Jan-13 15:44 33.632834 -117.652101 90 2467ft 132kts
29-Jan-13 15:45 33.628652 -117.608703 93 2583ft 132kts
29-Jan-13 15:46 33.620794 -117.568064 90 3525ft 115kts
29-Jan-13 15:47 33.614827 -117.528066 90 3546ft 121kts
29-Jan-13 15:48 33.607744 -117.489027 93 3519ft 123kts
29-Jan-13 15:49 33.605053 -117.450374 63 3661ft 106kts
29-Jan-13 15:50 33.616480 -117.415146 54 3551ft 116kts
29-Jan-13 15:51 33.631478 -117.380774 52 3524ft 118kts
29-Jan-13 15:52 33.645105 -117.346271 60 3484ft 115kts
29-Jan-13 15:53 33.655773 -117.308347 63 3476ft 118kts
29-Jan-13 15:54 33.663716 -117.269478 73 3577ft 119kts
29-Jan-13 15:55 33.666926 -117.228056 86 3556ft 127kts
29-Jan-13 15:56 33.663054 -117.185308 90 3537ft 129kts
29-Jan-13 15:57 33.660564 -117.141918 84 3825ft 126kts
29-Jan-13 15:58 33.658014 -117.101392 89 4480ft 124kts
29-Jan-13 15:59 33.671525 -117.075113 31 5290ft 88kts
29-Jan-13 16:00 33.690602 -117.055484 26 5562ft 102kts
29-Jan-13 16:01 33.714034 -117.032662 31 5449ft 115kts
29-Jan-13 16:02 33.736221 -117.008907 22 5544ft 91kts
29-Jan-13 16:03 33.759119 -116.996235 16 5460ft 96kts
29-Jan-13 16:04 33.783323 -116.980029 21 5399ft 97kts
29-Jan-13 16:05 33.804707 -116.961714 26 5567ft 96kts
29-Jan-13 16:06 33.826451 -116.939165 30 5594ft 112kts
29-Jan-13 16:07 33.850027 -116.917708 25 5570ft 99kts
29-Jan-13 16:08 33.870924 -116.895626 34 5569ft 101kts
29-Jan-13 16:09 33.888287 -116.867710 46 5551ft 106kts
29-Jan-13 16:10 33.902052 -116.835661 52 5541ft 109kts
29-Jan-13 16:11 33.912708 -116.800720 59 5531ft 112kts
29-Jan-13 16:12 33.922726 -116.765436 59 5525ft 111kts
29-Jan-13 16:13 33.929845 -116.728378 69 5523ft 115kts
29-Jan-13 16:14 33.931411 -116.688042 84 5539ft 123kts
29-Jan-13 16:15 33.925466 -116.646522 96 5448ft 126kts
29-Jan-13 16:16 33.902754 -116.615111 137 5033ft 102kts
29-Jan-13 16:17 33.879095 -116.593348 139 4066ft 109kts
29-Jan-13 16:18 33.855877 -116.570258 135 2922ft 107kts
29-Jan-13 16:19 33.839158 -116.544980 114 1939ft 84kts
29-Jan-13 16:20 33.827260 -116.524528 136 1463ft 72kts
29-Jan-13 16:21 33.814374 -116.507156 134 1488ft 68kts
29-Jan-13 16:22 33.800361 -116.490822 106 1507ft 77kts
29-Jan-13 16:24 33.820993 -116.499961 324 653ft 82kts
29-Jan-13 16:25 33.828266 -116.507005 188 480ft 10kts
29-Jan-13 16:26 33.827966 -116.507029 185 480ft 0kts
29-Jan-13 16:27 33.826657 -116.506742 166 480ft 5kts
29-Jan-13 16:28 33.825820 -116.508693 238 480ft 2kts
29-Jan-13 16:29 33.825191 -116.508829 178 480ft 0kts
29-Jan-13 16:30 33.825221 -116.508833 163 480ft 0kts
29-Jan-13 16:31 33.825361 -116.508807 221 480ft 0kts
29-Jan-13 16:32 33.825360 -116.508807 221 480ft 0kts
29-Jan-13 16:33 33.825350 -116.508818 221 480ft 0kts
29-Jan-13 16:34 33.825877 -116.510155 267 480ft 3kts
29-Jan-13 16:35 33.825876 -116.510180 267 480ft 0kts
29-Jan-13 16:36 33.825876 -116.510184 267 480ft 0kts
29-Jan-13 16:37 33.825876 -116.510188 267 480ft 0kts
29-Jan-13 16:38 33.825876 -116.510193 267 480ft 0kts
29-Jan-13 16:39 33.825876 -116.510197 267 480ft 0kts

Navigation Log

Ident Type
Flight plan parsing failed, navigation log unavailable